WJA615 CYOW-CYYC
Flight info
| Callsign | WJA615 |
|---|---|
| Flight time | N/A |
| Altitude | 36000 |
| Route | RADEN DCT 48N080W DCT MISAX DCT AMENU DCT BIRKO BIRKO6 |
| Aircraft | B737/M-SDE2E3FGHIRWXY/LB1 |
Departure
| Time | 2026-05-05 20:59 |
|---|---|
| Airport | Ottawa Macdonald-Cartier International Airport (CYOW) |
Arrival
| Time | N/A |
|---|---|
| Airport | Calgary International Airport (CYYC) |
| Time | Latitude | Longitude | Altitude | Speed | Heading |
|---|---|---|---|---|---|
| 2026-05-05 20:47 | 45.32015 | -75.66541 | 375 ft | 0 kts | 36° |
| 2026-05-05 20:50 | 45.32001 | -75.66556 | 375 ft | 4 kts | 36° |
| 2026-05-05 20:50 | 45.31979 | -75.66578 | 375 ft | 4 kts | 36° |
| 2026-05-05 20:50 | 45.31957 | -75.66601 | 375 ft | 4 kts | 36° |
| 2026-05-05 20:50 | 45.31945 | -75.66614 | 375 ft | 0 kts | 36° |
| 2026-05-05 20:52 | 45.31945 | -75.66612 | 375 ft | 1 kts | 48° |
| 2026-05-05 20:53 | 45.31928 | -75.66552 | 375 ft | 10 kts | 148° |
| 2026-05-05 20:53 | 45.31884 | -75.66476 | 375 ft | 11 kts | 126° |
| 2026-05-05 20:53 | 45.31875 | -75.66426 | 375 ft | 4 kts | 64° |
| 2026-05-05 20:53 | 45.31891 | -75.66387 | 375 ft | 5 kts | 58° |
| 2026-05-05 20:54 | 45.31916 | -75.66330 | 376 ft | 10 kts | 57° |
| 2026-05-05 20:54 | 45.31975 | -75.66202 | 375 ft | 21 kts | 57° |
| 2026-05-05 20:54 | 45.32055 | -75.66022 | 374 ft | 22 kts | 57° |
| 2026-05-05 20:54 | 45.32130 | -75.65853 | 373 ft | 16 kts | 57° |
| 2026-05-05 20:55 | 45.32189 | -75.65728 | 374 ft | 15 kts | 57° |
| 2026-05-05 20:55 | 45.32244 | -75.65605 | 375 ft | 15 kts | 58° |
| 2026-05-05 20:55 | 45.32304 | -75.65474 | 375 ft | 16 kts | 56° |
| 2026-05-05 20:55 | 45.32376 | -75.65309 | 375 ft | 23 kts | 58° |
| 2026-05-05 20:56 | 45.32433 | -75.65181 | 372 ft | 14 kts | 55° |
| 2026-05-05 20:56 | 45.32483 | -75.65072 | 372 ft | 13 kts | 57° |
| 2026-05-05 20:56 | 45.32530 | -75.64966 | 369 ft | 12 kts | 59° |
| 2026-05-05 20:56 | 45.32576 | -75.64864 | 368 ft | 12 kts | 56° |
| 2026-05-05 20:57 | 45.32590 | -75.64752 | 368 ft | 12 kts | 106° |
| 2026-05-05 20:57 | 45.32572 | -75.64640 | 369 ft | 11 kts | 104° |
| 2026-05-05 20:57 | 45.32520 | -75.64562 | 367 ft | 11 kts | 152° |
| 2026-05-05 20:57 | 45.32463 | -75.64607 | 370 ft | 11 kts | 245° |
| 2026-05-05 20:58 | 45.32452 | -75.64632 | 367 ft | 0 kts | 237° |
| 2026-05-05 20:58 | 45.32395 | -75.64755 | 367 ft | 50 kts | 237° |
| 2026-05-05 20:58 | 45.32068 | -75.65484 | 371 ft | 123 kts | 237° |
| 2026-05-05 20:59 | 45.31541 | -75.66704 | 640 ft | 160 kts | 239° |
| 2026-05-05 20:59 | 45.30927 | -75.68122 | 1409 ft | 172 kts | 244° |
| 2026-05-05 20:59 | 45.30334 | -75.69581 | 2476 ft | 169 kts | 244° |
| 2026-05-05 20:59 | 45.29764 | -75.71102 | 3032 ft | 191 kts | 246° |
| 2026-05-05 21:00 | 45.29117 | -75.72912 | 3446 ft | 213 kts | 245° |
| 2026-05-05 21:00 | 45.28499 | -75.74858 | 4257 ft | 217 kts | 259° |
| 2026-05-05 21:00 | 45.28701 | -75.76978 | 5122 ft | 225 kts | 291° |
| 2026-05-05 21:00 | 45.29667 | -75.78815 | 5835 ft | 247 kts | 313° |
| 2026-05-05 21:01 | 45.31248 | -75.80089 | 6415 ft | 274 kts | 333° |
| 2026-05-05 21:01 | 45.33097 | -75.80891 | 7355 ft | 282 kts | 336° |
| 2026-05-05 21:01 | 45.35024 | -75.81606 | 8199 ft | 291 kts | 335° |
| 2026-05-05 21:01 | 45.37017 | -75.82318 | 9082 ft | 298 kts | 334° |
| 2026-05-05 21:02 | 45.39018 | -75.83021 | 9876 ft | 303 kts | 333° |
| 2026-05-05 21:02 | 45.41088 | -75.83758 | 10486 ft | 314 kts | 333° |
| 2026-05-05 21:02 | 45.43297 | -75.84565 | 10683 ft | 341 kts | 334° |
| 2026-05-05 21:02 | 45.45667 | -75.85424 | 11106 ft | 358 kts | 335° |
| 2026-05-05 21:03 | 45.48112 | -75.86297 | 11773 ft | 367 kts | 334° |
| 2026-05-05 21:03 | 45.50607 | -75.87184 | 12629 ft | 372 kts | 334° |
| 2026-05-05 21:03 | 45.53123 | -75.88074 | 13468 ft | 375 kts | 334° |
| 2026-05-05 21:03 | 45.55671 | -75.88986 | 14164 ft | 380 kts | 334° |
| 2026-05-05 21:04 | 45.58245 | -75.89910 | 14893 ft | 383 kts | 334° |
| 2026-05-05 21:04 | 45.60800 | -75.90828 | 15657 ft | 385 kts | 334° |
| 2026-05-05 21:04 | 45.63405 | -75.91768 | 16396 ft | 388 kts | 334° |
| 2026-05-05 21:04 | 45.66034 | -75.92720 | 17096 ft | 392 kts | 334° |
| 2026-05-05 21:05 | 45.68684 | -75.93679 | 17880 ft | 394 kts | 334° |
| 2026-05-05 21:05 | 45.71354 | -75.94647 | 18456 ft | 400 kts | 334° |
| 2026-05-05 21:05 | 45.74080 | -75.95639 | 18956 ft | 407 kts | 334° |
| 2026-05-05 21:05 | 45.76833 | -75.96641 | 19565 ft | 410 kts | 334° |
| 2026-05-05 21:06 | 45.79592 | -75.97641 | 20159 ft | 410 kts | 334° |
| 2026-05-05 21:06 | 45.82372 | -75.98650 | 20666 ft | 413 kts | 334° |
| 2026-05-05 21:06 | 45.85135 | -75.99656 | 21142 ft | 416 kts | 334° |
| 2026-05-05 21:06 | 45.87952 | -76.00684 | 21610 ft | 419 kts | 334° |
| 2026-05-05 21:07 | 45.90735 | -76.01863 | 22079 ft | 411 kts | 326° |
| 2026-05-05 21:07 | 45.93194 | -76.03777 | 22565 ft | 395 kts | 313° |
| 2026-05-05 21:07 | 45.95268 | -76.06249 | 23157 ft | 380 kts | 302° |
| 2026-05-05 21:07 | 45.96946 | -76.09094 | 23653 ft | 371 kts | 297° |
| 2026-05-05 21:08 | 45.98548 | -76.11995 | 24075 ft | 371 kts | 297° |
| 2026-05-05 21:08 | 46.00145 | -76.14918 | 24457 ft | 373 kts | 296° |
| 2026-05-05 21:08 | 46.01756 | -76.17868 | 24846 ft | 375 kts | 296° |
| 2026-05-05 21:08 | 46.03347 | -76.20772 | 25226 ft | 376 kts | 297° |
| 2026-05-05 21:09 | 46.04970 | -76.23725 | 25625 ft | 377 kts | 297° |
| 2026-05-05 21:09 | 46.06604 | -76.26689 | 26008 ft | 378 kts | 297° |
| 2026-05-05 21:09 | 46.08245 | -76.29663 | 26375 ft | 380 kts | 297° |
| 2026-05-05 21:09 | 46.09894 | -76.32650 | 26730 ft | 382 kts | 297° |
| 2026-05-05 21:10 | 46.11548 | -76.35647 | 27109 ft | 382 kts | 297° |
| 2026-05-05 21:10 | 46.13204 | -76.38648 | 27586 ft | 382 kts | 296° |
| 2026-05-05 21:10 | 46.14854 | -76.41638 | 27959 ft | 382 kts | 296° |
| 2026-05-05 21:10 | 46.16488 | -76.44606 | 28278 ft | 383 kts | 296° |
| 2026-05-05 21:11 | 46.18146 | -76.47625 | 28554 ft | 385 kts | 296° |
| 2026-05-05 21:11 | 46.19815 | -76.50665 | 28853 ft | 387 kts | 296° |
| 2026-05-05 21:11 | 46.21486 | -76.53711 | 29172 ft | 387 kts | 296° |
| 2026-05-05 21:11 | 46.23153 | -76.56747 | 29637 ft | 385 kts | 296° |
| 2026-05-05 21:12 | 46.24809 | -76.59761 | 30071 ft | 381 kts | 296° |
| 2026-05-05 21:12 | 46.26454 | -76.62763 | 30434 ft | 380 kts | 295° |
| 2026-05-05 21:12 | 46.28087 | -76.65750 | 30756 ft | 379 kts | 295° |
| 2026-05-05 21:12 | 46.29698 | -76.68701 | 31111 ft | 378 kts | 295° |
| 2026-05-05 21:13 | 46.31313 | -76.71658 | 31653 ft | 373 kts | 295° |
| 2026-05-05 21:13 | 46.32912 | -76.74584 | 32140 ft | 368 kts | 295° |
| 2026-05-05 21:13 | 46.34493 | -76.77492 | 32456 ft | 369 kts | 295° |
| 2026-05-05 21:13 | 46.36077 | -76.80414 | 32727 ft | 369 kts | 295° |
| 2026-05-05 21:14 | 46.37659 | -76.83333 | 33099 ft | 368 kts | 295° |
| 2026-05-05 21:14 | 46.39237 | -76.86244 | 33475 ft | 366 kts | 295° |
| 2026-05-05 21:14 | 46.40800 | -76.89127 | 33811 ft | 364 kts | 295° |
| 2026-05-05 21:14 | 46.42369 | -76.92032 | 33977 ft | 367 kts | 295° |
| 2026-05-05 21:15 | 46.43924 | -76.94919 | 34179 ft | 370 kts | 295° |
| 2026-05-05 21:15 | 46.45510 | -76.97863 | 34368 ft | 372 kts | 295° |
| 2026-05-05 21:15 | 46.47105 | -77.00822 | 34556 ft | 373 kts | 295° |
| 2026-05-05 21:15 | 46.48711 | -77.03805 | 34733 ft | 376 kts | 295° |
| 2026-05-05 21:16 | 46.50328 | -77.06812 | 34845 ft | 379 kts | 296° |
| 2026-05-05 21:16 | 46.51953 | -77.09835 | 35031 ft | 381 kts | 296° |
| 2026-05-05 21:16 | 46.53583 | -77.12865 | 35235 ft | 381 kts | 296° |
| 2026-05-05 21:16 | 46.55219 | -77.15911 | 35391 ft | 383 kts | 296° |
| 2026-05-05 21:17 | 46.56862 | -77.18976 | 35552 ft | 384 kts | 297° |
| 2026-05-05 21:17 | 46.58485 | -77.22008 | 35641 ft | 387 kts | 297° |
| 2026-05-05 21:17 | 46.61790 | -77.28198 | 35638 ft | 386 kts | 296° |
| 2026-05-05 21:18 | 46.65067 | -77.34347 | 35649 ft | 383 kts | 296° |
| 2026-05-05 21:18 | 46.68325 | -77.40465 | 35643 ft | 381 kts | 296° |
| 2026-05-05 21:19 | 46.71545 | -77.46530 | 35657 ft | 381 kts | 296° |
| 2026-05-05 21:19 | 46.74777 | -77.52629 | 35657 ft | 380 kts | 296° |
| 2026-05-05 21:20 | 46.78011 | -77.58743 | 35659 ft | 381 kts | 296° |
| 2026-05-05 21:20 | 46.81249 | -77.64888 | 35648 ft | 383 kts | 296° |
| 2026-05-05 21:21 | 46.84492 | -77.71038 | 35659 ft | 387 kts | 297° |
| 2026-05-05 21:21 | 46.87783 | -77.77303 | 35656 ft | 390 kts | 297° |
| 2026-05-05 21:22 | 46.91095 | -77.83623 | 35657 ft | 393 kts | 297° |
| 2026-05-05 21:22 | 46.94426 | -77.89993 | 35650 ft | 395 kts | 297° |
| 2026-05-05 21:23 | 46.97747 | -77.96363 | 35651 ft | 397 kts | 298° |
| 2026-05-05 21:23 | 47.01105 | -78.02812 | 35649 ft | 398 kts | 297° |
| 2026-05-05 21:24 | 47.04465 | -78.09284 | 35661 ft | 400 kts | 298° |
| 2026-05-05 21:24 | 47.07836 | -78.15790 | 35645 ft | 401 kts | 298° |
| 2026-05-05 21:25 | 47.11203 | -78.22304 | 35634 ft | 401 kts | 298° |
| 2026-05-05 21:25 | 47.14543 | -78.28782 | 35642 ft | 400 kts | 298° |
| 2026-05-05 21:26 | 47.17895 | -78.35299 | 35650 ft | 399 kts | 298° |
| 2026-05-05 21:26 | 47.21235 | -78.41812 | 35654 ft | 399 kts | 298° |
| 2026-05-05 21:27 | 47.24580 | -78.48349 | 35667 ft | 400 kts | 299° |
| 2026-05-05 21:27 | 47.27910 | -78.54871 | 35657 ft | 402 kts | 299° |
| 2026-05-05 21:28 | 47.31271 | -78.61470 | 35653 ft | 403 kts | 299° |
| 2026-05-05 21:28 | 47.34641 | -78.68101 | 35648 ft | 405 kts | 299° |
| 2026-05-05 21:29 | 47.38015 | -78.74758 | 35662 ft | 406 kts | 299° |
| 2026-05-05 21:29 | 47.41370 | -78.81391 | 35659 ft | 407 kts | 299° |
| 2026-05-05 21:30 | 47.44753 | -78.88094 | 35648 ft | 407 kts | 299° |
| 2026-05-05 21:30 | 47.48130 | -78.94803 | 35681 ft | 407 kts | 299° |
| 2026-05-05 21:31 | 47.51506 | -79.01530 | 35666 ft | 407 kts | 299° |
| 2026-05-05 21:31 | 47.54858 | -79.08222 | 35685 ft | 407 kts | 300° |
| 2026-05-05 21:32 | 47.58231 | -79.14974 | 35669 ft | 408 kts | 299° |
| 2026-05-05 21:32 | 47.61607 | -79.21748 | 35650 ft | 408 kts | 299° |
| 2026-05-05 21:33 | 47.64973 | -79.28520 | 35664 ft | 408 kts | 299° |
| 2026-05-05 21:33 | 47.68339 | -79.35306 | 35651 ft | 408 kts | 299° |
| 2026-05-05 21:34 | 47.71672 | -79.42043 | 35672 ft | 408 kts | 299° |
| 2026-05-05 21:34 | 47.75025 | -79.48840 | 35684 ft | 409 kts | 300° |
| 2026-05-05 21:35 | 47.78386 | -79.55671 | 35670 ft | 410 kts | 300° |
| 2026-05-05 21:35 | 47.81750 | -79.62521 | 35666 ft | 410 kts | 300° |
| 2026-05-05 21:36 | 47.85086 | -79.69333 | 35664 ft | 410 kts | 300° |
| 2026-05-05 21:36 | 47.88448 | -79.76216 | 35660 ft | 411 kts | 300° |
| 2026-05-05 21:37 | 47.91803 | -79.83101 | 35669 ft | 411 kts | 300° |
| 2026-05-05 21:37 | 47.95160 | -79.90008 | 35651 ft | 411 kts | 300° |
| 2026-05-05 21:38 | 47.98491 | -79.96877 | 35649 ft | 411 kts | 300° |
| 2026-05-05 21:38 | 48.01358 | -80.04145 | 35660 ft | 404 kts | 290° |
| 2026-05-05 21:39 | 48.03675 | -80.11789 | 35652 ft | 404 kts | 289° |
| 2026-05-05 21:39 | 48.05983 | -80.19450 | 35662 ft | 405 kts | 290° |
| 2026-05-05 21:40 | 48.08290 | -80.27066 | 35650 ft | 405 kts | 290° |
| 2026-05-05 21:40 | 48.10621 | -80.34750 | 35651 ft | 405 kts | 290° |
| 2026-05-05 21:41 | 48.12950 | -80.42438 | 35655 ft | 406 kts | 290° |
| 2026-05-05 21:41 | 48.15276 | -80.50135 | 35650 ft | 406 kts | 290° |
| 2026-05-05 21:42 | 48.17581 | -80.57790 | 35669 ft | 406 kts | 290° |
| 2026-05-05 21:42 | 48.19896 | -80.65501 | 35655 ft | 406 kts | 290° |
| 2026-05-05 21:43 | 48.22204 | -80.73213 | 35664 ft | 405 kts | 290° |
| 2026-05-05 21:43 | 48.24508 | -80.80936 | 35666 ft | 405 kts | 290° |
| 2026-05-05 21:44 | 48.26804 | -80.88658 | 35669 ft | 405 kts | 290° |
| 2026-05-05 21:44 | 48.29076 | -80.96323 | 35671 ft | 404 kts | 289° |
| 2026-05-05 21:45 | 48.31359 | -81.04049 | 35667 ft | 405 kts | 290° |
| 2026-05-05 21:45 | 48.33641 | -81.11796 | 35673 ft | 406 kts | 290° |
| 2026-05-05 21:46 | 48.35904 | -81.19504 | 35670 ft | 406 kts | 290° |
| 2026-05-05 21:46 | 48.38181 | -81.27283 | 35674 ft | 407 kts | 290° |
| 2026-05-05 21:47 | 48.40456 | -81.35078 | 35679 ft | 407 kts | 290° |
| 2026-05-05 21:47 | 48.42730 | -81.42897 | 35675 ft | 408 kts | 290° |
| 2026-05-05 21:48 | 48.44987 | -81.50685 | 35669 ft | 408 kts | 290° |
| 2026-05-05 21:48 | 48.47253 | -81.58526 | 35673 ft | 408 kts | 290° |
| 2026-05-05 21:49 | 48.49513 | -81.66373 | 35673 ft | 408 kts | 290° |
| 2026-05-05 21:49 | 48.51770 | -81.74233 | 35678 ft | 408 kts | 289° |
| 2026-05-05 21:50 | 48.54005 | -81.82044 | 35670 ft | 408 kts | 290° |
| 2026-05-05 21:50 | 48.56251 | -81.89915 | 35670 ft | 408 kts | 290° |
| 2026-05-05 21:51 | 48.58488 | -81.97785 | 35674 ft | 408 kts | 290° |
| 2026-05-05 21:51 | 48.60721 | -82.05667 | 35675 ft | 408 kts | 289° |
| 2026-05-05 21:52 | 48.64041 | -82.17430 | 35686 ft | 407 kts | 290° |
| 2026-05-05 21:53 | 48.66256 | -82.25311 | 35672 ft | 407 kts | 290° |
| 2026-05-05 21:53 | 48.68469 | -82.33212 | 35676 ft | 407 kts | 289° |
| 2026-05-05 21:54 | 48.70672 | -82.41102 | 35679 ft | 407 kts | 289° |
| 2026-05-05 21:54 | 48.72869 | -82.48999 | 35678 ft | 407 kts | 289° |
| 2026-05-05 21:55 | 48.75047 | -82.56854 | 35679 ft | 407 kts | 289° |
| 2026-05-05 21:55 | 48.77238 | -82.64778 | 35679 ft | 407 kts | 289° |
| 2026-05-05 21:56 | 48.79420 | -82.72698 | 35685 ft | 407 kts | 289° |
| 2026-05-05 21:56 | 48.81580 | -82.80568 | 35684 ft | 407 kts | 289° |
| 2026-05-05 21:57 | 48.83752 | -82.88503 | 35692 ft | 407 kts | 289° |
| 2026-05-05 21:57 | 48.85914 | -82.96432 | 35694 ft | 407 kts | 289° |
| 2026-05-05 21:58 | 48.88075 | -83.04384 | 35695 ft | 408 kts | 290° |
| 2026-05-05 21:58 | 48.90219 | -83.12298 | 35692 ft | 408 kts | 290° |
| 2026-05-05 21:59 | 48.92374 | -83.20280 | 35698 ft | 408 kts | 290° |
| 2026-05-05 21:59 | 48.94526 | -83.28279 | 35695 ft | 409 kts | 289° |
| 2026-05-05 22:00 | 48.96675 | -83.36293 | 35701 ft | 409 kts | 289° |
| 2026-05-05 22:00 | 48.98816 | -83.44307 | 35697 ft | 409 kts | 289° |
| 2026-05-05 22:01 | 49.00953 | -83.52332 | 35696 ft | 409 kts | 289° |
| 2026-05-05 22:01 | 49.03073 | -83.60322 | 35694 ft | 409 kts | 289° |
| 2026-05-05 22:02 | 49.05197 | -83.68356 | 35698 ft | 409 kts | 289° |
| 2026-05-05 22:02 | 49.07321 | -83.76414 | 35698 ft | 409 kts | 289° |
| 2026-05-05 22:03 | 49.09430 | -83.84449 | 35698 ft | 409 kts | 289° |
| 2026-05-05 22:03 | 49.11528 | -83.92466 | 35698 ft | 409 kts | 289° |
| 2026-05-05 22:04 | 49.13633 | -84.00536 | 35698 ft | 410 kts | 289° |
| 2026-05-05 22:04 | 49.15735 | -84.08628 | 35712 ft | 410 kts | 289° |
| 2026-05-05 22:05 | 49.17824 | -84.16696 | 35709 ft | 412 kts | 289° |
| 2026-05-05 22:05 | 49.19928 | -84.24851 | 35707 ft | 413 kts | 289° |
| 2026-05-05 22:06 | 49.22031 | -84.33032 | 35707 ft | 414 kts | 289° |
| 2026-05-05 22:06 | 49.24135 | -84.41247 | 35703 ft | 415 kts | 289° |
| 2026-05-05 22:07 | 49.26239 | -84.49490 | 35705 ft | 416 kts | 289° |
| 2026-05-05 22:07 | 49.28326 | -84.57697 | 35703 ft | 417 kts | 289° |
| 2026-05-05 22:08 | 49.30421 | -84.65964 | 35705 ft | 417 kts | 289° |
| 2026-05-05 22:08 | 49.32514 | -84.74255 | 35699 ft | 416 kts | 289° |
| 2026-05-05 22:09 | 49.34596 | -84.82533 | 35700 ft | 416 kts | 289° |
| 2026-05-05 22:09 | 49.36659 | -84.90765 | 35707 ft | 416 kts | 289° |
| 2026-05-05 22:10 | 49.38726 | -84.99042 | 35706 ft | 415 kts | 289° |
| 2026-05-05 22:10 | 49.40785 | -85.07321 | 35711 ft | 415 kts | 289° |
| 2026-05-05 22:11 | 49.42835 | -85.15596 | 35715 ft | 415 kts | 289° |
| 2026-05-05 22:11 | 49.44880 | -85.23878 | 35719 ft | 414 kts | 289° |
| 2026-05-05 22:12 | 49.46906 | -85.32112 | 35712 ft | 415 kts | 289° |
| 2026-05-05 22:12 | 49.48939 | -85.40409 | 35710 ft | 415 kts | 289° |
| 2026-05-05 22:13 | 49.50966 | -85.48712 | 35711 ft | 415 kts | 289° |
| 2026-05-05 22:13 | 49.52989 | -85.57029 | 35710 ft | 415 kts | 289° |
| 2026-05-05 22:14 | 49.54991 | -85.65290 | 35708 ft | 415 kts | 289° |
| 2026-05-05 22:14 | 49.57005 | -85.73630 | 35717 ft | 415 kts | 289° |
| 2026-05-05 22:15 | 49.59007 | -85.81957 | 35713 ft | 415 kts | 289° |
| 2026-05-05 22:15 | 49.60994 | -85.90251 | 35721 ft | 415 kts | 289° |
| 2026-05-05 22:16 | 49.62987 | -85.98601 | 35714 ft | 416 kts | 289° |
| 2026-05-05 22:16 | 49.64979 | -86.06980 | 35718 ft | 416 kts | 289° |
| 2026-05-05 22:17 | 49.66965 | -86.15364 | 35722 ft | 416 kts | 289° |
| 2026-05-05 22:17 | 49.68931 | -86.23700 | 35738 ft | 416 kts | 289° |
| 2026-05-05 22:18 | 49.70819 | -86.31733 | 35732 ft | 417 kts | 289° |
| 2026-05-05 22:18 | 49.72791 | -86.40155 | 35731 ft | 417 kts | 289° |
| 2026-05-05 22:19 | 49.74759 | -86.48595 | 35724 ft | 418 kts | 289° |
| 2026-05-05 22:19 | 49.76714 | -86.57010 | 35734 ft | 418 kts | 289° |
| 2026-05-05 22:20 | 49.78677 | -86.65491 | 35732 ft | 420 kts | 289° |
| 2026-05-05 22:20 | 49.80639 | -86.74004 | 35732 ft | 420 kts | 288° |
| 2026-05-05 22:21 | 49.82597 | -86.82532 | 35734 ft | 420 kts | 288° |
| 2026-05-05 22:21 | 49.84547 | -86.91060 | 35727 ft | 420 kts | 288° |
| 2026-05-05 22:22 | 49.86479 | -86.99546 | 35733 ft | 420 kts | 288° |
| 2026-05-05 22:22 | 49.88293 | -87.07546 | 35735 ft | 420 kts | 288° |
| 2026-05-05 22:23 | 49.89901 | -87.14658 | 35743 ft | 420 kts | 288° |
| 2026-05-05 22:23 | 49.91831 | -87.23229 | 35744 ft | 420 kts | 288° |
| 2026-05-05 22:24 | 49.94065 | -87.33192 | 35754 ft | 420 kts | 288° |
| 2026-05-05 22:24 | 49.95980 | -87.41773 | 35751 ft | 421 kts | 288° |
| 2026-05-05 22:25 | 49.97890 | -87.50363 | 35753 ft | 421 kts | 288° |
| 2026-05-05 22:25 | 49.99474 | -87.57517 | 35751 ft | 421 kts | 288° |
| 2026-05-05 22:26 | 50.01681 | -87.67522 | 35758 ft | 421 kts | 288° |
| 2026-05-05 22:26 | 50.03572 | -87.76135 | 35756 ft | 421 kts | 288° |
| 2026-05-05 22:27 | 50.05137 | -87.83291 | 35759 ft | 421 kts | 288° |
| 2026-05-05 22:27 | 50.07016 | -87.91918 | 35763 ft | 420 kts | 288° |
| 2026-05-05 22:28 | 50.08888 | -88.00539 | 35763 ft | 420 kts | 288° |
| 2026-05-05 22:28 | 50.10750 | -88.09170 | 35768 ft | 420 kts | 288° |
| 2026-05-05 22:29 | 50.12576 | -88.17652 | 35769 ft | 420 kts | 288° |
| 2026-05-05 22:29 | 50.14431 | -88.26304 | 35773 ft | 421 kts | 288° |
| 2026-05-05 22:30 | 50.16276 | -88.34952 | 35776 ft | 421 kts | 288° |
| 2026-05-05 22:30 | 50.18118 | -88.43623 | 35775 ft | 421 kts | 288° |
| 2026-05-05 22:31 | 50.19945 | -88.52261 | 35764 ft | 422 kts | 288° |
| 2026-05-05 22:31 | 50.21780 | -88.60972 | 35754 ft | 423 kts | 288° |
| 2026-05-05 22:32 | 50.23613 | -88.69711 | 35741 ft | 424 kts | 288° |
| 2026-05-05 22:32 | 50.25442 | -88.78469 | 35730 ft | 424 kts | 288° |
| 2026-05-05 22:33 | 50.27254 | -88.87188 | 35731 ft | 425 kts | 288° |
| 2026-05-05 22:33 | 50.29074 | -88.95980 | 35731 ft | 425 kts | 288° |
| 2026-05-05 22:34 | 50.30890 | -89.04791 | 35734 ft | 426 kts | 287° |
| 2026-05-05 22:34 | 50.32703 | -89.13628 | 35776 ft | 426 kts | 287° |
| 2026-05-05 22:35 | 50.34508 | -89.22465 | 35787 ft | 426 kts | 287° |
| 2026-05-05 22:35 | 50.36296 | -89.31255 | 35793 ft | 427 kts | 287° |
| 2026-05-05 22:36 | 50.38087 | -89.40107 | 35794 ft | 427 kts | 287° |
| 2026-05-05 22:36 | 50.39845 | -89.48832 | 35803 ft | 427 kts | 287° |
| 2026-05-05 22:37 | 50.41627 | -89.57710 | 35804 ft | 427 kts | 287° |
| 2026-05-05 22:37 | 50.43389 | -89.66538 | 35817 ft | 426 kts | 287° |
| 2026-05-05 22:38 | 50.45153 | -89.75407 | 35815 ft | 426 kts | 287° |
| 2026-05-05 22:38 | 50.46907 | -89.84271 | 35805 ft | 425 kts | 287° |
| 2026-05-05 22:39 | 50.48656 | -89.93140 | 35814 ft | 425 kts | 287° |
| 2026-05-05 22:39 | 50.50300 | -90.02052 | 35799 ft | 424 kts | 282° |
| 2026-05-05 22:40 | 50.51288 | -90.11111 | 35814 ft | 424 kts | 279° |
| 2026-05-05 22:40 | 50.52154 | -90.20277 | 35832 ft | 424 kts | 279° |
| 2026-05-05 22:41 | 50.53039 | -90.29423 | 35829 ft | 423 kts | 279° |
| 2026-05-05 22:41 | 50.53941 | -90.38495 | 35821 ft | 423 kts | 279° |
| 2026-05-05 22:42 | 50.54853 | -90.47613 | 35835 ft | 422 kts | 279° |
| 2026-05-05 22:42 | 50.55761 | -90.56733 | 35838 ft | 422 kts | 279° |
| 2026-05-05 22:43 | 50.56635 | -90.65589 | 35834 ft | 423 kts | 279° |
| 2026-05-05 22:43 | 50.57523 | -90.74672 | 35856 ft | 423 kts | 279° |
| 2026-05-05 22:44 | 50.58412 | -90.83831 | 35842 ft | 424 kts | 279° |
| 2026-05-05 22:44 | 50.59294 | -90.93003 | 35838 ft | 425 kts | 279° |
| 2026-05-05 22:45 | 50.60171 | -91.02200 | 35847 ft | 425 kts | 279° |
| 2026-05-05 22:45 | 50.61042 | -91.11406 | 35861 ft | 426 kts | 279° |
| 2026-05-05 22:46 | 50.61901 | -91.20570 | 35864 ft | 426 kts | 279° |
| 2026-05-05 22:46 | 50.62758 | -91.29802 | 35866 ft | 426 kts | 278° |
| 2026-05-05 22:47 | 50.63609 | -91.39040 | 35867 ft | 427 kts | 278° |
| 2026-05-05 22:47 | 50.64453 | -91.48292 | 35852 ft | 427 kts | 279° |
| 2026-05-05 22:48 | 50.65286 | -91.57492 | 35866 ft | 427 kts | 278° |
| 2026-05-05 22:48 | 50.66117 | -91.66772 | 35875 ft | 427 kts | 278° |
| 2026-05-05 22:49 | 50.66941 | -91.76049 | 35880 ft | 428 kts | 278° |
| 2026-05-05 22:49 | 50.67759 | -91.85338 | 35876 ft | 428 kts | 278° |
| 2026-05-05 22:50 | 50.68564 | -91.94580 | 35901 ft | 428 kts | 278° |
| 2026-05-05 22:50 | 50.69365 | -92.03872 | 35886 ft | 428 kts | 278° |
| 2026-05-05 22:51 | 50.70158 | -92.13183 | 35894 ft | 428 kts | 278° |
| 2026-05-05 22:51 | 50.70947 | -92.22484 | 35897 ft | 428 kts | 278° |
| 2026-05-05 22:52 | 50.71730 | -92.31807 | 35887 ft | 428 kts | 278° |
| 2026-05-05 22:52 | 50.72498 | -92.41061 | 35899 ft | 428 kts | 278° |
| 2026-05-05 22:53 | 50.73266 | -92.50384 | 35895 ft | 429 kts | 278° |
| 2026-05-05 22:53 | 50.74025 | -92.59712 | 35897 ft | 429 kts | 278° |
| 2026-05-05 22:54 | 50.74776 | -92.69061 | 35903 ft | 429 kts | 278° |
| 2026-05-05 22:54 | 50.75523 | -92.78406 | 35917 ft | 429 kts | 278° |
| 2026-05-05 22:55 | 50.76255 | -92.87699 | 35902 ft | 430 kts | 278° |
| 2026-05-05 22:55 | 50.76987 | -92.97067 | 35903 ft | 429 kts | 278° |
| 2026-05-05 22:56 | 50.77709 | -93.06428 | 35905 ft | 429 kts | 277° |
| 2026-05-05 22:56 | 50.78425 | -93.15790 | 35911 ft | 429 kts | 277° |
| 2026-05-05 22:57 | 50.79128 | -93.25088 | 35915 ft | 429 kts | 278° |
| 2026-05-05 22:57 | 50.79829 | -93.34461 | 35918 ft | 429 kts | 278° |
| 2026-05-05 22:58 | 50.80523 | -93.43829 | 35922 ft | 429 kts | 278° |
| 2026-05-05 22:58 | 50.81207 | -93.53198 | 35918 ft | 429 kts | 277° |
| 2026-05-05 22:59 | 50.81882 | -93.62504 | 35942 ft | 429 kts | 277° |
| 2026-05-05 22:59 | 50.82554 | -93.71891 | 35936 ft | 430 kts | 277° |
| 2026-05-05 23:00 | 50.83546 | -93.85997 | 35912 ft | 430 kts | 277° |
| 2026-05-05 23:00 | 50.84200 | -93.95417 | 35929 ft | 431 kts | 278° |
| 2026-05-05 23:01 | 50.84849 | -94.04863 | 35939 ft | 432 kts | 278° |
| 2026-05-05 23:01 | 50.85484 | -94.14247 | 35944 ft | 432 kts | 277° |
| 2026-05-05 23:02 | 50.86116 | -94.23712 | 35956 ft | 433 kts | 277° |
| 2026-05-05 23:02 | 50.86745 | -94.33197 | 35962 ft | 433 kts | 277° |
| 2026-05-05 23:03 | 50.87362 | -94.42674 | 35960 ft | 433 kts | 277° |
| 2026-05-05 23:03 | 50.87970 | -94.52109 | 35960 ft | 434 kts | 277° |
| 2026-05-05 23:04 | 50.88576 | -94.61597 | 35957 ft | 434 kts | 277° |
| 2026-05-05 23:04 | 50.89176 | -94.71094 | 35956 ft | 433 kts | 277° |
| 2026-05-05 23:05 | 50.89766 | -94.80584 | 35969 ft | 433 kts | 277° |
| 2026-05-05 23:05 | 50.90342 | -94.90010 | 35977 ft | 433 kts | 277° |
| 2026-05-05 23:06 | 50.90915 | -94.99492 | 35976 ft | 432 kts | 277° |
| 2026-05-05 23:06 | 50.91477 | -95.08979 | 35974 ft | 432 kts | 277° |
| 2026-05-05 23:07 | 50.92028 | -95.18466 | 35969 ft | 432 kts | 277° |
| 2026-05-05 23:07 | 50.92582 | -95.27949 | 35989 ft | 432 kts | 277° |
| 2026-05-05 23:08 | 50.93119 | -95.37374 | 35981 ft | 432 kts | 277° |
| 2026-05-05 23:08 | 50.93654 | -95.46868 | 35994 ft | 433 kts | 277° |
| 2026-05-05 23:09 | 50.94181 | -95.56379 | 35997 ft | 433 kts | 277° |
| 2026-05-05 23:09 | 50.94700 | -95.65888 | 35998 ft | 433 kts | 276° |
| 2026-05-05 23:10 | 50.95208 | -95.75345 | 35993 ft | 433 kts | 276° |
| 2026-05-05 23:10 | 50.95715 | -95.84854 | 36005 ft | 433 kts | 277° |
| 2026-05-05 23:11 | 50.96210 | -95.94368 | 36013 ft | 433 kts | 276° |
| 2026-05-05 23:11 | 50.96698 | -96.03883 | 36013 ft | 433 kts | 277° |
| 2026-05-05 23:12 | 50.97178 | -96.13399 | 36028 ft | 433 kts | 277° |
| 2026-05-05 23:12 | 50.97647 | -96.22852 | 36026 ft | 432 kts | 277° |
| 2026-05-05 23:13 | 50.98111 | -96.32358 | 36031 ft | 433 kts | 276° |
| 2026-05-05 23:13 | 50.98569 | -96.41879 | 36036 ft | 433 kts | 276° |
| 2026-05-05 23:14 | 50.99019 | -96.51388 | 36044 ft | 432 kts | 276° |
| 2026-05-05 23:14 | 50.99461 | -96.60842 | 36043 ft | 432 kts | 276° |
| 2026-05-05 23:15 | 50.99893 | -96.70366 | 36047 ft | 433 kts | 276° |
| 2026-05-05 23:15 | 51.00317 | -96.79898 | 36049 ft | 433 kts | 276° |
| 2026-05-05 23:16 | 51.00738 | -96.89448 | 36047 ft | 433 kts | 276° |
| 2026-05-05 23:16 | 51.01149 | -96.99000 | 36047 ft | 434 kts | 276° |
| 2026-05-05 23:17 | 51.01549 | -97.08491 | 36045 ft | 434 kts | 276° |
| 2026-05-05 23:17 | 51.01945 | -97.18062 | 36039 ft | 434 kts | 276° |
| 2026-05-05 23:18 | 51.02335 | -97.27646 | 36050 ft | 435 kts | 276° |
| 2026-05-05 23:18 | 51.02718 | -97.37221 | 36045 ft | 435 kts | 276° |
| 2026-05-05 23:19 | 51.03091 | -97.46751 | 36051 ft | 435 kts | 276° |
| 2026-05-05 23:19 | 51.03457 | -97.56347 | 36055 ft | 435 kts | 276° |
| 2026-05-05 23:20 | 51.03813 | -97.65939 | 36049 ft | 435 kts | 275° |
| 2026-05-05 23:20 | 51.04163 | -97.75532 | 36056 ft | 435 kts | 275° |
| 2026-05-05 23:21 | 51.04506 | -97.85131 | 36059 ft | 435 kts | 275° |
| 2026-05-05 23:21 | 51.04839 | -97.94663 | 36060 ft | 435 kts | 275° |
| 2026-05-05 23:22 | 51.05166 | -98.04272 | 36062 ft | 435 kts | 275° |
| 2026-05-05 23:22 | 51.05485 | -98.13870 | 36056 ft | 435 kts | 275° |
| 2026-05-05 23:23 | 51.05796 | -98.23480 | 36067 ft | 435 kts | 275° |
| 2026-05-05 23:23 | 51.06098 | -98.33035 | 36065 ft | 436 kts | 275° |
| 2026-05-05 23:24 | 51.06394 | -98.42662 | 36072 ft | 436 kts | 275° |
| 2026-05-05 23:24 | 51.06683 | -98.52297 | 36070 ft | 437 kts | 275° |
| 2026-05-05 23:25 | 51.06963 | -98.61934 | 36072 ft | 437 kts | 275° |
| 2026-05-05 23:25 | 51.07236 | -98.71589 | 36077 ft | 437 kts | 275° |
| 2026-05-05 23:26 | 51.07499 | -98.81176 | 36078 ft | 437 kts | 275° |
| 2026-05-05 23:26 | 51.07757 | -98.90835 | 36082 ft | 437 kts | 275° |
| 2026-05-05 23:27 | 51.08006 | -99.00510 | 36084 ft | 438 kts | 275° |
| 2026-05-05 23:27 | 51.08248 | -99.10184 | 36079 ft | 438 kts | 275° |
| 2026-05-05 23:28 | 51.08480 | -99.19790 | 36088 ft | 438 kts | 275° |
| 2026-05-05 23:28 | 51.08706 | -99.29470 | 36083 ft | 438 kts | 274° |
| 2026-05-05 23:29 | 51.08924 | -99.39146 | 36085 ft | 438 kts | 274° |
| 2026-05-05 23:29 | 51.09132 | -99.48762 | 36088 ft | 438 kts | 274° |
| 2026-05-05 23:30 | 51.09334 | -99.58435 | 36077 ft | 437 kts | 275° |
| 2026-05-05 23:30 | 51.09528 | -99.68095 | 36079 ft | 437 kts | 274° |
| 2026-05-05 23:31 | 51.09714 | -99.77769 | 36070 ft | 437 kts | 274° |
| 2026-05-05 23:31 | 51.09892 | -99.87439 | 36056 ft | 437 kts | 274° |
| 2026-05-05 23:32 | 51.10062 | -99.97031 | 36056 ft | 437 kts | 274° |
| 2026-05-05 23:32 | 51.10261 | -100.06693 | 36047 ft | 436 kts | 278° |
| 2026-05-05 23:33 | 51.10985 | -100.16237 | 36058 ft | 434 kts | 281° |
| 2026-05-05 23:33 | 51.11857 | -100.25741 | 36061 ft | 434 kts | 281° |
| 2026-05-05 23:34 | 51.12694 | -100.35192 | 36093 ft | 434 kts | 281° |
| 2026-05-05 23:34 | 51.13496 | -100.44720 | 36097 ft | 434 kts | 281° |
| 2026-05-05 23:35 | 51.14275 | -100.54255 | 36085 ft | 434 kts | 281° |
| 2026-05-05 23:35 | 51.15044 | -100.63808 | 36095 ft | 434 kts | 281° |
| 2026-05-05 23:36 | 51.15799 | -100.73282 | 36095 ft | 435 kts | 280° |
| 2026-05-05 23:36 | 51.16555 | -100.82847 | 36096 ft | 435 kts | 280° |
| 2026-05-05 23:37 | 51.17301 | -100.92406 | 36099 ft | 435 kts | 280° |
| 2026-05-05 23:37 | 51.18042 | -101.01993 | 36080 ft | 436 kts | 280° |
| 2026-05-05 23:38 | 51.18775 | -101.11580 | 36102 ft | 436 kts | 280° |
| 2026-05-05 23:38 | 51.19495 | -101.21103 | 36106 ft | 436 kts | 280° |
| 2026-05-05 23:39 | 51.20213 | -101.30707 | 36106 ft | 436 kts | 280° |
| 2026-05-05 23:39 | 51.20923 | -101.40317 | 36110 ft | 436 kts | 280° |
| 2026-05-05 23:40 | 51.21626 | -101.49926 | 36088 ft | 436 kts | 280° |
| 2026-05-05 23:40 | 51.22314 | -101.59460 | 36102 ft | 436 kts | 280° |
| 2026-05-05 23:41 | 51.23000 | -101.69062 | 36112 ft | 436 kts | 280° |
| 2026-05-05 23:41 | 51.23678 | -101.78670 | 36118 ft | 436 kts | 280° |
| 2026-05-05 23:42 | 51.24348 | -101.88278 | 36118 ft | 436 kts | 280° |
| 2026-05-05 23:42 | 51.25006 | -101.97831 | 36122 ft | 436 kts | 280° |
| 2026-05-05 23:43 | 51.25660 | -102.07444 | 36113 ft | 436 kts | 280° |
| 2026-05-05 23:43 | 51.26306 | -102.17056 | 36127 ft | 435 kts | 280° |
| 2026-05-05 23:44 | 51.26945 | -102.26673 | 36070 ft | 436 kts | 280° |
| 2026-05-05 23:44 | 51.27571 | -102.36228 | 36067 ft | 436 kts | 279° |
| 2026-05-05 23:45 | 51.28194 | -102.45849 | 36064 ft | 436 kts | 279° |
| 2026-05-05 23:45 | 51.28809 | -102.55475 | 36061 ft | 435 kts | 279° |
| 2026-05-05 23:46 | 51.29415 | -102.65089 | 36073 ft | 435 kts | 279° |
| 2026-05-05 23:46 | 51.30008 | -102.74634 | 36089 ft | 435 kts | 279° |
| 2026-05-05 23:47 | 51.30599 | -102.84257 | 36108 ft | 435 kts | 279° |
| 2026-05-05 23:47 | 51.31181 | -102.93871 | 36131 ft | 435 kts | 279° |
| 2026-05-05 23:48 | 51.31755 | -103.03488 | 36139 ft | 434 kts | 279° |
| 2026-05-05 23:48 | 51.32317 | -103.13029 | 36146 ft | 434 kts | 279° |
| 2026-05-05 23:49 | 51.32874 | -103.22629 | 36153 ft | 434 kts | 279° |
| 2026-05-05 23:49 | 51.33424 | -103.32233 | 36160 ft | 433 kts | 279° |
| 2026-05-05 23:50 | 51.33965 | -103.41837 | 36160 ft | 433 kts | 279° |
| 2026-05-05 23:50 | 51.34495 | -103.51371 | 36146 ft | 433 kts | 279° |
| 2026-05-05 23:51 | 51.35019 | -103.60955 | 36159 ft | 433 kts | 279° |
| 2026-05-05 23:51 | 51.35537 | -103.70551 | 36166 ft | 432 kts | 279° |
| 2026-05-05 23:52 | 51.36045 | -103.80130 | 36164 ft | 432 kts | 279° |
| 2026-05-05 23:52 | 51.36543 | -103.89657 | 36169 ft | 432 kts | 279° |
| 2026-05-05 23:53 | 51.37036 | -103.99235 | 36166 ft | 432 kts | 279° |
| 2026-05-05 23:53 | 51.37521 | -104.08825 | 36166 ft | 432 kts | 279° |
| 2026-05-05 23:54 | 51.37999 | -104.18427 | 36167 ft | 432 kts | 278° |
| 2026-05-05 23:54 | 51.38468 | -104.28021 | 36164 ft | 433 kts | 278° |
| 2026-05-05 23:55 | 51.38927 | -104.37559 | 36166 ft | 432 kts | 278° |
| 2026-05-05 23:55 | 51.39381 | -104.47159 | 36168 ft | 432 kts | 278° |
| 2026-05-05 23:56 | 51.39827 | -104.56746 | 36165 ft | 432 kts | 278° |
| 2026-05-05 23:56 | 51.40265 | -104.66337 | 36171 ft | 432 kts | 278° |
| 2026-05-05 23:57 | 51.40692 | -104.75860 | 36170 ft | 432 kts | 278° |
| 2026-05-05 23:57 | 51.41113 | -104.85444 | 36172 ft | 432 kts | 278° |
| 2026-05-05 23:58 | 51.41528 | -104.95041 | 36170 ft | 432 kts | 278° |
| 2026-05-05 23:58 | 51.41934 | -105.04626 | 36154 ft | 431 kts | 278° |
| 2026-05-05 23:59 | 51.42329 | -105.14148 | 36164 ft | 431 kts | 278° |
| 2026-05-05 23:59 | 51.42720 | -105.23735 | 36172 ft | 431 kts | 278° |
| 2026-05-06 00:00 | 51.43103 | -105.33314 | 36171 ft | 431 kts | 278° |
| 2026-05-06 00:00 | 51.43477 | -105.42906 | 36172 ft | 431 kts | 278° |
| 2026-05-06 00:01 | 51.43844 | -105.52501 | 36147 ft | 431 kts | 278° |
| 2026-05-06 00:01 | 51.44200 | -105.62037 | 36170 ft | 431 kts | 278° |
| 2026-05-06 00:02 | 51.44551 | -105.71618 | 36182 ft | 431 kts | 278° |
| 2026-05-06 00:02 | 51.44895 | -105.81214 | 36174 ft | 431 kts | 278° |
| 2026-05-06 00:03 | 51.45231 | -105.90823 | 36176 ft | 431 kts | 278° |
| 2026-05-06 00:03 | 51.45557 | -106.00365 | 36183 ft | 431 kts | 278° |
| 2026-05-06 00:04 | 51.45877 | -106.09957 | 36179 ft | 431 kts | 279° |
| 2026-05-06 00:04 | 51.46188 | -106.19548 | 36178 ft | 431 kts | 278° |
| 2026-05-06 00:05 | 51.46641 | -106.33929 | 36184 ft | 431 kts | 278° |
| 2026-05-06 00:06 | 51.46931 | -106.43454 | 36186 ft | 431 kts | 278° |
| 2026-05-06 00:06 | 51.47215 | -106.53051 | 36186 ft | 431 kts | 278° |
| 2026-05-06 00:07 | 51.47492 | -106.62643 | 36182 ft | 430 kts | 279° |
| 2026-05-06 00:07 | 51.47760 | -106.72223 | 36185 ft | 430 kts | 278° |
| 2026-05-06 00:08 | 51.48021 | -106.81810 | 36183 ft | 430 kts | 278° |
| 2026-05-06 00:08 | 51.48272 | -106.91341 | 36181 ft | 430 kts | 278° |
| 2026-05-06 00:09 | 51.48517 | -107.00937 | 36195 ft | 430 kts | 278° |
| 2026-05-06 00:09 | 51.48754 | -107.10511 | 36190 ft | 429 kts | 279° |
| 2026-05-06 00:10 | 51.48983 | -107.20082 | 36188 ft | 429 kts | 279° |
| 2026-05-06 00:10 | 51.49204 | -107.29593 | 36190 ft | 429 kts | 279° |
| 2026-05-06 00:11 | 51.49416 | -107.39143 | 36196 ft | 429 kts | 279° |
| 2026-05-06 00:11 | 51.49621 | -107.48697 | 36193 ft | 429 kts | 279° |
| 2026-05-06 00:12 | 51.49819 | -107.58260 | 36164 ft | 428 kts | 279° |
| 2026-05-06 00:12 | 51.50008 | -107.67799 | 36186 ft | 428 kts | 279° |
| 2026-05-06 00:13 | 51.50188 | -107.77270 | 36194 ft | 428 kts | 279° |
| 2026-05-06 00:13 | 51.50362 | -107.86816 | 36199 ft | 428 kts | 279° |
| 2026-05-06 00:14 | 51.50529 | -107.96367 | 36195 ft | 428 kts | 279° |
| 2026-05-06 00:14 | 51.50687 | -108.05910 | 36205 ft | 428 kts | 279° |
| 2026-05-06 00:15 | 51.50836 | -108.15400 | 36198 ft | 428 kts | 280° |
| 2026-05-06 00:15 | 51.50979 | -108.24941 | 36203 ft | 428 kts | 280° |
| 2026-05-06 00:16 | 51.51115 | -108.34483 | 36205 ft | 428 kts | 280° |
| 2026-05-06 00:16 | 51.51243 | -108.44034 | 36210 ft | 428 kts | 280° |
| 2026-05-06 00:17 | 51.51362 | -108.53520 | 36211 ft | 428 kts | 280° |
| 2026-05-06 00:17 | 51.51474 | -108.63053 | 36205 ft | 427 kts | 281° |
| 2026-05-06 00:18 | 51.51577 | -108.72562 | 36202 ft | 426 kts | 281° |
| 2026-05-06 00:18 | 51.51673 | -108.82059 | 36180 ft | 425 kts | 281° |
| 2026-05-06 00:19 | 51.51761 | -108.91475 | 36166 ft | 425 kts | 281° |
| 2026-05-06 00:19 | 51.51841 | -109.00947 | 36154 ft | 424 kts | 281° |
| 2026-05-06 00:20 | 51.51915 | -109.10423 | 36146 ft | 424 kts | 281° |
| 2026-05-06 00:20 | 51.51980 | -109.19893 | 36147 ft | 424 kts | 281° |
| 2026-05-06 00:21 | 51.52037 | -109.29296 | 36149 ft | 424 kts | 281° |
| 2026-05-06 00:21 | 51.52088 | -109.38765 | 36159 ft | 424 kts | 281° |
| 2026-05-06 00:22 | 51.52131 | -109.48234 | 36175 ft | 424 kts | 281° |
| 2026-05-06 00:22 | 51.52166 | -109.57707 | 36189 ft | 424 kts | 281° |
| 2026-05-06 00:23 | 51.52192 | -109.67107 | 36205 ft | 423 kts | 281° |
| 2026-05-06 00:23 | 51.52212 | -109.76564 | 36226 ft | 423 kts | 281° |
| 2026-05-06 00:24 | 51.52224 | -109.86020 | 36222 ft | 424 kts | 281° |
| 2026-05-06 00:24 | 51.52229 | -109.95486 | 36222 ft | 424 kts | 281° |
| 2026-05-06 00:25 | 51.52226 | -110.04957 | 36204 ft | 424 kts | 281° |
| 2026-05-06 00:25 | 51.52215 | -110.14345 | 36185 ft | 423 kts | 281° |
| 2026-05-06 00:26 | 51.52196 | -110.23766 | 36214 ft | 422 kts | 281° |
| 2026-05-06 00:26 | 51.52170 | -110.33172 | 36228 ft | 421 kts | 281° |
| 2026-05-06 00:27 | 51.52138 | -110.42577 | 36230 ft | 421 kts | 281° |
| 2026-05-06 00:27 | 51.52097 | -110.51975 | 36228 ft | 421 kts | 281° |
| 2026-05-06 00:28 | 51.52050 | -110.61301 | 36237 ft | 421 kts | 281° |
| 2026-05-06 00:28 | 51.51993 | -110.70676 | 36228 ft | 419 kts | 281° |
| 2026-05-06 00:29 | 51.51930 | -110.80030 | 36235 ft | 419 kts | 281° |
| 2026-05-06 00:29 | 51.51861 | -110.89368 | 36242 ft | 418 kts | 281° |
| 2026-05-06 00:30 | 51.51784 | -110.98653 | 36238 ft | 419 kts | 281° |
| 2026-05-06 00:30 | 51.51698 | -111.07990 | 36227 ft | 413 kts | 281° |
| 2026-05-06 00:30 | 51.51643 | -111.12518 | 36220 ft | 399 kts | 281° |
| 2026-05-06 00:31 | 51.51586 | -111.16885 | 36179 ft | 384 kts | 282° |
| 2026-05-06 00:31 | 51.51530 | -111.21091 | 36203 ft | 370 kts | 283° |
| 2026-05-06 00:31 | 51.51479 | -111.25152 | 36218 ft | 357 kts | 283° |
| 2026-05-06 00:32 | 51.51407 | -111.33119 | 36229 ft | 363 kts | 284° |
| 2026-05-06 00:32 | 51.51343 | -111.41325 | 36261 ft | 377 kts | 283° |
| 2026-05-06 00:33 | 51.51243 | -111.49794 | 36265 ft | 381 kts | 282° |
| 2026-05-06 00:33 | 51.51115 | -111.58171 | 36235 ft | 370 kts | 283° |
| 2026-05-06 00:34 | 51.50995 | -111.66434 | 36198 ft | 370 kts | 283° |
| 2026-05-06 00:34 | 51.50875 | -111.74625 | 36235 ft | 370 kts | 283° |
| 2026-05-06 00:35 | 51.50750 | -111.82888 | 36247 ft | 370 kts | 283° |
| 2026-05-06 00:35 | 51.50617 | -111.91157 | 36240 ft | 371 kts | 283° |
| 2026-05-06 00:36 | 51.50477 | -111.99436 | 36241 ft | 372 kts | 283° |
| 2026-05-06 00:36 | 51.50332 | -112.07672 | 36228 ft | 372 kts | 283° |
| 2026-05-06 00:37 | 51.50179 | -112.15983 | 36181 ft | 372 kts | 283° |
| 2026-05-06 00:37 | 51.50020 | -112.24268 | 36215 ft | 371 kts | 283° |
| 2026-05-06 00:38 | 51.49857 | -112.32538 | 36216 ft | 370 kts | 283° |
| 2026-05-06 00:38 | 51.49688 | -112.40790 | 36224 ft | 370 kts | 283° |
| 2026-05-06 00:39 | 51.49516 | -112.48989 | 36214 ft | 370 kts | 283° |
| 2026-05-06 00:39 | 51.49336 | -112.57244 | 36215 ft | 371 kts | 282° |
| 2026-05-06 00:40 | 51.49150 | -112.65514 | 36208 ft | 371 kts | 282° |
| 2026-05-06 00:40 | 51.48957 | -112.73772 | 36205 ft | 369 kts | 282° |
| 2026-05-06 00:41 | 51.48761 | -112.81949 | 36197 ft | 370 kts | 282° |
| 2026-05-06 00:41 | 51.48559 | -112.90206 | 36198 ft | 370 kts | 282° |
| 2026-05-06 00:42 | 51.48350 | -112.98454 | 36214 ft | 370 kts | 282° |
| 2026-05-06 00:42 | 51.48135 | -113.06719 | 36206 ft | 371 kts | 282° |
| 2026-05-06 00:43 | 51.47916 | -113.14924 | 36216 ft | 371 kts | 282° |
| 2026-05-06 00:43 | 51.47690 | -113.23197 | 36201 ft | 371 kts | 282° |
| 2026-05-06 00:44 | 51.47457 | -113.31463 | 36200 ft | 369 kts | 282° |
| 2026-05-06 00:44 | 51.47220 | -113.39654 | 36212 ft | 369 kts | 282° |
| 2026-05-06 00:45 | 51.46988 | -113.47825 | 36219 ft | 370 kts | 282° |
| 2026-05-06 00:45 | 51.46758 | -113.56065 | 36219 ft | 370 kts | 282° |
| 2026-05-06 00:46 | 51.46529 | -113.64317 | 36214 ft | 370 kts | 282° |
| 2026-05-06 00:46 | 51.46301 | -113.72559 | 36192 ft | 368 kts | 282° |
| 2026-05-06 00:47 | 51.46080 | -113.80689 | 36214 ft | 367 kts | 282° |
| 2026-05-06 00:47 | 51.45861 | -113.88861 | 36218 ft | 366 kts | 282° |
| 2026-05-06 00:48 | 51.45642 | -113.97007 | 36218 ft | 366 kts | 282° |
| 2026-05-06 00:48 | 51.45422 | -114.05162 | 36225 ft | 366 kts | 282° |
| 2026-05-06 00:49 | 51.45204 | -114.13317 | 36208 ft | 366 kts | 282° |
| 2026-05-06 00:49 | 51.44987 | -114.21413 | 36207 ft | 366 kts | 282° |
| 2026-05-06 00:50 | 51.44775 | -114.29567 | 36204 ft | 365 kts | 282° |
| 2026-05-06 00:50 | 51.44576 | -114.37704 | 36205 ft | 365 kts | 282° |
| 2026-05-06 00:51 | 51.44381 | -114.45853 | 36201 ft | 366 kts | 282° |
| 2026-05-06 00:51 | 51.44189 | -114.53937 | 36191 ft | 366 kts | 282° |
| 2026-05-06 00:52 | 51.43997 | -114.62093 | 36193 ft | 366 kts | 282° |
| 2026-05-06 00:52 | 51.43805 | -114.70240 | 36176 ft | 366 kts | 282° |
| 2026-05-06 00:53 | 51.43627 | -114.78377 | 36161 ft | 365 kts | 282° |
| 2026-05-06 00:53 | 51.43464 | -114.86420 | 36168 ft | 364 kts | 282° |
| 2026-05-06 00:54 | 51.43300 | -114.94502 | 36183 ft | 363 kts | 282° |
| 2026-05-06 00:54 | 51.43139 | -115.02583 | 36156 ft | 363 kts | 282° |
| 2026-05-06 00:55 | 51.42979 | -115.10682 | 36145 ft | 364 kts | 282° |
| 2026-05-06 00:55 | 51.42820 | -115.18718 | 36128 ft | 364 kts | 282° |
| 2026-05-06 00:56 | 51.42663 | -115.26805 | 36102 ft | 362 kts | 282° |
| 2026-05-06 00:56 | 51.42532 | -115.34863 | 36100 ft | 362 kts | 282° |
| 2026-05-06 00:57 | 51.42417 | -115.42955 | 36100 ft | 365 kts | 282° |
| 2026-05-06 00:57 | 51.42311 | -115.51061 | 36107 ft | 362 kts | 282° |
| 2026-05-06 00:57 | 51.42262 | -115.55094 | 36005 ft | 361 kts | 282° |
| 2026-05-06 00:58 | 51.42213 | -115.59037 | 36037 ft | 357 kts | 282° |
| 2026-05-06 00:58 | 51.42100 | -115.66944 | 36061 ft | 355 kts | 282° |
| 2026-05-06 00:59 | 51.41986 | -115.74857 | 36074 ft | 356 kts | 282° |
| 2026-05-06 00:59 | 51.41889 | -115.82806 | 36063 ft | 358 kts | 282° |
| 2026-05-06 01:00 | 51.41812 | -115.90760 | 36054 ft | 360 kts | 282° |
| 2026-05-06 01:00 | 51.41741 | -115.98776 | 36079 ft | 361 kts | 282° |
| 2026-05-06 01:01 | 51.41679 | -116.06849 | 36070 ft | 363 kts | 282° |
| 2026-05-06 01:01 | 51.41623 | -116.14947 | 36077 ft | 364 kts | 282° |
| 2026-05-06 01:02 | 51.41578 | -116.21678 | 36065 ft | 364 kts | 282° |
| 2026-05-06 01:02 | 51.41484 | -116.31023 | 36069 ft | 357 kts | 282° |
| 2026-05-06 01:03 | 51.41434 | -116.39037 | 36088 ft | 362 kts | 282° |
| 2026-05-06 01:03 | 51.41419 | -116.47153 | 36021 ft | 365 kts | 282° |
| 2026-05-06 01:04 | 51.41408 | -116.53841 | 36055 ft | 358 kts | 282° |
| 2026-05-06 01:04 | 51.41375 | -116.61807 | 36045 ft | 355 kts | 282° |
| 2026-05-06 01:05 | 51.41350 | -116.69729 | 36057 ft | 357 kts | 282° |
| 2026-05-06 01:05 | 51.41347 | -116.74812 | 35953 ft | 362 kts | 282° |
| 2026-05-06 01:05 | 51.41353 | -116.78837 | 35978 ft | 358 kts | 282° |
| 2026-05-06 01:06 | 51.41366 | -116.86673 | 35970 ft | 352 kts | 282° |
| 2026-05-06 01:06 | 51.41425 | -116.94520 | 36027 ft | 353 kts | 282° |
| 2026-05-06 01:07 | 51.41503 | -117.02474 | 36046 ft | 360 kts | 282° |
| 2026-05-06 01:07 | 51.41576 | -117.10470 | 36033 ft | 362 kts | 282° |
| 2026-05-06 01:08 | 51.41634 | -117.18437 | 36022 ft | 353 kts | 282° |
| 2026-05-06 01:08 | 51.41679 | -117.26287 | 35997 ft | 352 kts | 282° |
| 2026-05-06 01:09 | 51.41721 | -117.34128 | 36021 ft | 352 kts | 282° |
| 2026-05-06 01:09 | 51.41788 | -117.41929 | 36016 ft | 352 kts | 282° |
| 2026-05-06 01:10 | 51.41897 | -117.49787 | 36019 ft | 353 kts | 282° |
| 2026-05-06 01:10 | 51.42013 | -117.57686 | 35999 ft | 356 kts | 282° |
| 2026-05-06 01:11 | 51.42128 | -117.65594 | 36004 ft | 354 kts | 282° |
| 2026-05-06 01:11 | 51.42242 | -117.73470 | 36033 ft | 354 kts | 282° |
| 2026-05-06 01:12 | 51.42378 | -117.81310 | 35995 ft | 355 kts | 282° |
| 2026-05-06 01:12 | 51.42532 | -117.89214 | 35988 ft | 355 kts | 282° |
| 2026-05-06 01:13 | 51.42718 | -117.97113 | 35984 ft | 353 kts | 282° |
| 2026-05-06 01:13 | 51.42940 | -118.04988 | 36015 ft | 356 kts | 282° |
| 2026-05-06 01:14 | 51.43294 | -118.16811 | 35959 ft | 347 kts | 282° |
| 2026-05-06 01:14 | 51.43485 | -118.24502 | 35988 ft | 349 kts | 282° |
| 2026-05-06 01:15 | 51.43689 | -118.32280 | 35979 ft | 350 kts | 282° |
| 2026-05-06 01:15 | 51.43904 | -118.40093 | 35969 ft | 353 kts | 282° |
| 2026-05-06 01:16 | 51.44132 | -118.47969 | 35924 ft | 354 kts | 282° |
| 2026-05-06 01:16 | 51.44383 | -118.55761 | 35964 ft | 351 kts | 282° |
| 2026-05-06 01:17 | 51.44675 | -118.63547 | 35957 ft | 348 kts | 282° |
| 2026-05-06 01:17 | 51.44990 | -118.71298 | 35961 ft | 348 kts | 282° |
| 2026-05-06 01:18 | 51.45298 | -118.78997 | 35897 ft | 345 kts | 282° |
| 2026-05-06 01:18 | 51.45614 | -118.86737 | 35946 ft | 352 kts | 282° |
| 2026-05-06 01:19 | 51.45928 | -118.94482 | 35950 ft | 349 kts | 282° |
| 2026-05-06 01:19 | 51.46236 | -119.02231 | 35944 ft | 348 kts | 282° |
| 2026-05-06 01:20 | 51.46575 | -119.09939 | 35935 ft | 345 kts | 282° |
| 2026-05-06 01:20 | 51.46954 | -119.17608 | 35950 ft | 346 kts | 282° |
| 2026-05-06 01:21 | 51.47328 | -119.25310 | 35943 ft | 347 kts | 282° |
| 2026-05-06 01:21 | 51.47701 | -119.33002 | 35936 ft | 350 kts | 282° |
| 2026-05-06 01:22 | 51.48082 | -119.40793 | 35932 ft | 351 kts | 282° |
| 2026-05-06 01:22 | 51.48484 | -119.48593 | 35926 ft | 351 kts | 282° |
| 2026-05-06 01:23 | 51.48904 | -119.56377 | 35909 ft | 349 kts | 282° |
| 2026-05-06 01:23 | 51.49324 | -119.64050 | 35924 ft | 346 kts | 282° |
| 2026-05-06 01:24 | 51.49742 | -119.71736 | 35929 ft | 344 kts | 282° |
| 2026-05-06 01:24 | 51.50155 | -119.79402 | 35931 ft | 345 kts | 282° |
| 2026-05-06 01:25 | 51.50572 | -119.87085 | 35927 ft | 346 kts | 282° |
| 2026-05-06 01:25 | 51.50996 | -119.94794 | 35934 ft | 348 kts | 282° |
| 2026-05-06 01:26 | 51.51422 | -120.02502 | 35931 ft | 350 kts | 282° |
| 2026-05-06 01:26 | 51.51870 | -120.10275 | 35946 ft | 349 kts | 282° |
| 2026-05-06 01:27 | 51.52236 | -120.16732 | 35943 ft | 350 kts | 282° |
| 2026-05-06 01:27 | 51.52679 | -120.24493 | 35919 ft | 347 kts | 282° |
| 2026-05-06 01:28 | 51.53163 | -120.32149 | 35938 ft | 344 kts | 282° |
| 2026-05-06 01:28 | 51.53657 | -120.39786 | 35949 ft | 343 kts | 282° |
| 2026-05-06 01:29 | 51.54238 | -120.48661 | 35963 ft | 344 kts | 282° |
| 2026-05-06 01:29 | 51.54660 | -120.55030 | 35952 ft | 346 kts | 282° |
| 2026-05-06 01:30 | 51.55172 | -120.62732 | 35956 ft | 347 kts | 282° |
| 2026-05-06 01:30 | 51.55685 | -120.70442 | 35965 ft | 348 kts | 282° |
| 2026-05-06 01:31 | 51.56200 | -120.78182 | 35957 ft | 349 kts | 282° |
| 2026-05-06 01:31 | 51.56723 | -120.85873 | 35936 ft | 348 kts | 282° |
| 2026-05-06 01:32 | 51.57278 | -120.93586 | 35949 ft | 347 kts | 282° |
| 2026-05-06 01:32 | 51.57846 | -121.01295 | 35956 ft | 347 kts | 282° |
| 2026-05-06 01:33 | 51.58438 | -121.08994 | 35957 ft | 347 kts | 282° |
| 2026-05-06 01:33 | 51.59040 | -121.16678 | 35948 ft | 346 kts | 282° |
| 2026-05-06 01:34 | 51.59640 | -121.24307 | 35952 ft | 346 kts | 282° |
| 2026-05-06 01:34 | 51.60245 | -121.31982 | 35952 ft | 346 kts | 282° |
| 2026-05-06 01:35 | 51.60849 | -121.39656 | 35956 ft | 346 kts | 282° |
| 2026-05-06 01:35 | 51.61456 | -121.47319 | 35943 ft | 345 kts | 282° |
| 2026-05-06 01:36 | 51.62087 | -121.54986 | 35959 ft | 345 kts | 282° |
| 2026-05-06 01:36 | 51.62723 | -121.62587 | 35958 ft | 346 kts | 282° |
| 2026-05-06 01:37 | 51.63367 | -121.70254 | 35960 ft | 346 kts | 282° |
| 2026-05-06 01:37 | 51.64014 | -121.77939 | 35960 ft | 346 kts | 282° |
| 2026-05-06 01:38 | 51.64664 | -121.85636 | 35960 ft | 347 kts | 282° |
| 2026-05-06 01:38 | 51.65309 | -121.93275 | 35958 ft | 347 kts | 282° |
| 2026-05-06 01:39 | 51.65957 | -122.00963 | 35951 ft | 346 kts | 282° |
| 2026-05-06 01:39 | 51.66605 | -122.08655 | 35920 ft | 346 kts | 281° |
| 2026-05-06 01:40 | 51.67277 | -122.16328 | 35937 ft | 346 kts | 282° |
| 2026-05-06 01:40 | 51.67965 | -122.23987 | 35947 ft | 346 kts | 282° |
| 2026-05-06 01:41 | 51.68654 | -122.31606 | 35944 ft | 346 kts | 282° |
| 2026-05-06 01:41 | 51.69350 | -122.39283 | 35941 ft | 346 kts | 282° |
| 2026-05-06 01:42 | 51.70059 | -122.46973 | 35929 ft | 346 kts | 282° |
| 2026-05-06 01:42 | 51.70785 | -122.54628 | 35926 ft | 345 kts | 282° |
| 2026-05-06 01:43 | 51.71511 | -122.62227 | 35917 ft | 345 kts | 282° |
| 2026-05-06 01:43 | 51.72242 | -122.69855 | 35923 ft | 344 kts | 282° |
| 2026-05-06 01:44 | 51.72982 | -122.77465 | 35899 ft | 343 kts | 282° |
| 2026-05-06 01:44 | 51.73751 | -122.85040 | 35906 ft | 342 kts | 282° |
| 2026-05-06 01:45 | 51.74526 | -122.92565 | 35910 ft | 342 kts | 282° |
| 2026-05-06 01:45 | 51.75310 | -123.00137 | 35913 ft | 342 kts | 282° |
| 2026-05-06 01:46 | 51.76095 | -123.07715 | 35909 ft | 343 kts | 282° |
| 2026-05-06 01:46 | 51.76896 | -123.15318 | 35908 ft | 344 kts | 282° |
| 2026-05-06 01:47 | 51.77725 | -123.22916 | 35909 ft | 344 kts | 282° |
| 2026-05-06 01:47 | 51.78560 | -123.30487 | 35904 ft | 344 kts | 282° |
| 2026-05-06 01:48 | 51.79401 | -123.38097 | 35905 ft | 344 kts | 282° |
| 2026-05-06 01:48 | 51.80256 | -123.45712 | 35892 ft | 344 kts | 282° |
| 2026-05-06 01:49 | 51.81136 | -123.53307 | 35887 ft | 344 kts | 282° |